Latest News: CDIP is now hiring. Job description.

IMPERIAL BEACH NEARSHORE, CA - 155

GPS Positions

GPS Time
Latitude
Degrees
Longitude
Degrees
Gap
 
Distance
NM
Speed
Knots
Direction
Degrees
May 19, 21:21 32.56963° -117.16867° 30 min 0.01 0.00
May 19, 20:51 32.56961° -117.16867° 30 min 0.01 0.00
135°
May 19, 20:21 32.56963° -117.16869° 30 min 0.01 0.01
May 19, 19:51 32.56958° -117.16869° 30 min 0.01 0.00
May 19, 19:21 32.56955° -117.16869° 30 min 0.02 0.00
90°
May 19, 18:51 32.56955° -117.16874° 30 min 0.01 0.01
232°
May 19, 18:21 32.56958° -117.16869° 30 min 0.01 0.00
45°
May 19, 17:51 32.56956° -117.16872° 30 min 0.01 0.00
121°
May 19, 17:21 32.56957° -117.16874° 30 min 0.01 0.00
180°
May 19, 16:51 32.56958° -117.16874° 30 min 0.01 0.00
270°
May 19, 16:21 32.56958° -117.16872° 30 min 0.01 0.00
68°
May 19, 15:51 32.56957° -117.16874° 30 min 0.01 0.01
232°
May 19, 15:21 32.56960° -117.16869° 30 min 0.01 0.00
May 19, 14:51 32.56958° -117.16869° 30 min 0.01 0.00
151°
May 19, 14:21 32.56961° -117.16872° 30 min 0.01 0.01
223°
May 19, 13:51 32.56966° -117.16867° 30 min 0.01 0.00
180°
May 19, 13:21 32.56968° -117.16867° 30 min 0.01 0.01
162°
May 19, 12:51 32.56974° -117.16869° 30 min 0.01 0.00
68°
May 19, 12:21 32.56973° -117.16872° 30 min 0.01 0.01
48°
May 19, 11:51 32.56970° -117.16876° 30 min 0.01 0.01
335°
May 19, 11:21 32.56966° -117.16874° 30 min 0.01 0.00
40°
May 19, 10:51 32.56963° -117.16876° 30 min 0.01 0.00
45°
May 19, 10:21 32.56961° -117.16879° 30 min 0.01 0.00
May 19, 09:51 32.56960° -117.16879° 30 min 0.01 0.01
51°
May 19, 09:21 32.56956° -117.16885° 30 min 0.01 0.00
40°
May 19, 08:51 32.56954° -117.16887° 30 min 0.01 0.00
40°
May 19, 08:21 32.56952° -117.16889° 30 min 0.01 0.00
May 19, 07:51 32.56950° -117.16889° 30 min 0.01 0.00
48°
May 19, 07:21 32.56948° -117.16891° 30 min 0.01 0.00
180°
May 19, 06:51 32.56950° -117.16891° 30 min 0.01 0.00
290°
May 19, 06:21 32.56948° -117.16887° 30 min 0.01 0.00
55°
May 19, 05:51 32.56946° -117.16891° 30 min 0.01 0.01
121°
May 19, 05:21 32.56948° -117.16895° 30 min 0.01 0.00
270°
May 19, 04:51 32.56948° -117.16891° 30 min 0.01 0.00
73°
May 19, 04:21 32.56947° -117.16895° 30 min 0.01 0.01
270°
May 19, 03:51 32.56947° -117.16889° 30 min 0.01 0.00
239°
May 19, 03:21 32.56948° -117.16887° 30 min 0.01 0.01
259°
May 19, 02:51 32.56950° -117.16880° 30 min 0.01 0.00
180°
May 19, 02:21 32.56951° -117.16880° 30 min 0.01 0.01
250°
May 19, 01:51 32.56953° -117.16874° 30 min 0.01 0.01
228°
May 19, 01:21 32.56956° -117.16869° 30 min 0.01 0.00
May 19, 00:51 32.56954° -117.16869° 30 min 0.02 0.00
209°
May 19, 00:21 32.56957° -117.16867° 30 min 0.02 0.01
197°
May 18, 23:51 32.56961° -117.16866° 30 min 0.02 0.01
180°
May 18, 23:21 32.56969° -117.16866° 30 min 0.02 0.01
May 18, 22:51 32.56963° -117.16866° 30 min 0.02 0.00
180°
May 18, 22:21 32.56966° -117.16866° 30 min 0.02 0.00
May 18, 21:51 32.56966° -117.16866° 30 min 0.02 0.00
320°
May 18, 21:21 32.56963° -117.16863° 30 min 0.02 0.00
121°
May 18, 20:51 32.56964° -117.16866° 30 min 0.02 0.00
180°
May 18, 20:21 32.56967° -117.16866° 30 min 0.02 0.01
17°
May 18, 19:51 32.56963° -117.16867° 30 min 0.01 0.00
270°
May 18, 19:21 32.56963° -117.16866° 30 min 0.02 0.00
90°
May 18, 18:51 32.56963° -117.16869° 30 min 0.01 0.01
20°
May 18, 18:21 32.56957° -117.16872° 30 min 0.01 0.00
180°
May 18, 17:51 32.56960° -117.16872° 30 min 0.01 0.00
40°
May 18, 17:21 32.56958° -117.16874° 30 min 0.01 0.00
45°
May 18, 16:51 32.56956° -117.16876° 30 min 0.01 0.00
180°
May 18, 16:21 32.56957° -117.16876° 30 min 0.01 0.00
212°
May 18, 15:51 32.56960° -117.16874° 30 min 0.01 0.01
66°
May 18, 15:21 32.56958° -117.16880° 30 min 0.01 0.01
257°
May 18, 14:51 32.56959° -117.16874° 30 min 0.01 0.00
180°
May 18, 14:21 32.56963° -117.16874° 30 min 0.01 0.00
59°
May 18, 13:51 32.56961° -117.16876° 30 min 0.01 0.01
180°
May 18, 13:21 32.56969° -117.16876° 30 min 0.01 0.01
197°
May 18, 12:51 32.56975° -117.16874° 30 min 0.01 0.01
103°
May 18, 12:21 32.56976° -117.16880° 30 min 0.01 0.01
144°
May 18, 11:51 32.56982° -117.16885° 30 min 0.01 0.00
May 18, 11:21 32.56979° -117.16885° 30 min 0.01 0.00
301°
May 18, 10:51 32.56977° -117.16882° 30 min 0.01 0.00
121°
May 18, 10:21 32.56979° -117.16885° 30 min 0.01 0.01
81°
May 18, 09:51 32.56977° -117.16893° 30 min 0.01 0.01
33°
May 18, 09:21 32.56969° -117.16900° 30 min 0.00 0.01
37°
May 18, 08:51 32.56964° -117.16904° 30 min 0.00 0.00
59°
May 18, 08:21 32.56963° -117.16906° 30 min 0.01 0.01
329°
May 18, 07:51 32.56958° -117.16902° 30 min 0.01 0.00
315°
May 18, 07:21 32.56956° -117.16900° 30 min 0.01 0.00
320°
May 18, 06:51 32.56954° -117.16898° 30 min 0.01 0.00
May 18, 06:21 32.56954° -117.16898° 30 min 0.01 0.00
90°
May 18, 05:51 32.56954° -117.16900° 30 min 0.01 0.00
May 18, 05:21 32.56951° -117.16900° 30 min 0.01 0.00
287°
May 18, 04:51 32.56950° -117.16895° 30 min 0.01 0.00
270°
May 18, 04:21 32.56950° -117.16891° 30 min 0.01 0.00
331°
May 18, 03:51 32.56947° -117.16889° 30 min 0.01 0.00
270°
May 18, 03:21 32.56947° -117.16885° 30 min 0.01 0.00
239°
May 18, 02:51 32.56948° -117.16882° 30 min 0.01 0.01
239°
May 18, 02:21 32.56952° -117.16876° 30 min 0.01 0.00
239°
May 18, 01:51 32.56953° -117.16874° 30 min 0.01 0.00
180°
May 18, 01:21 32.56955° -117.16874° 30 min 0.01 0.01
281°
May 18, 00:51 32.56954° -117.16867° 30 min 0.02 0.00
140°
May 18, 00:21 32.56956° -117.16869° 30 min 0.01 0.00
250°
May 17, 23:51 32.56957° -117.16866° 30 min 0.02 0.00
90°
May 17, 23:21 32.56957° -117.16867° 30 min 0.02 0.00
270°
May 17, 22:51 32.56957° -117.16866° 30 min 0.02 0.01
134°
May 17, 22:21 32.56960° -117.16869° 30 min 0.01 0.00
212°
May 17, 21:51 32.56963° -117.16867° 30 min 0.01 0.00
68°
May 17, 21:21 32.56963° -117.16869° 30 min 0.01 0.00
May 17, 20:51 32.56963° -117.16869° 30 min 0.01 0.00
May 17, 20:21 32.56961° -117.16869° 30 min 0.01 0.00
May 17, 19:51 32.56961° -117.16869° 30 min 0.01 0.00
180°
May 17, 19:21 32.56963° -117.16869° 30 min 0.01 0.00
May 17, 18:51 32.56963° -117.16869° 30 min 0.01 0.00
32°
May 17, 18:21 32.56960° -117.16872° 30 min 0.01 0.01
52°
May 17, 17:51 32.56957° -117.16876° 30 min 0.01 0.00
55°
May 17, 17:21 32.56955° -117.16880° 30 min 0.01 0.00
180°
May 17, 16:51 32.56957° -117.16880° 30 min 0.01 0.00
180°
May 17, 16:21 32.56958° -117.16880° 30 min 0.01 0.00
301°
May 17, 15:51 32.56957° -117.16879° 30 min 0.01 0.01
180°
May 17, 15:21 32.56963° -117.16879° 30 min 0.01 0.00
328°
May 17, 14:51 32.56960° -117.16876° 30 min 0.01 0.00
180°
May 17, 14:21 32.56963° -117.16876° 30 min 0.01 0.00
90°
May 17, 13:51 32.56963° -117.16879° 30 min 0.01 0.01
180°
May 17, 13:21 32.56969° -117.16879° 30 min 0.01 0.01
170°
May 17, 12:51 32.56976° -117.16880° 30 min 0.01 0.00
180°
May 17, 12:21 32.56979° -117.16880° 30 min 0.01 0.00
214°
May 17, 11:51 32.56981° -117.16879° 30 min 0.01 0.00
May 17, 11:21 32.56981° -117.16879° 30 min 0.01 0.00
May 17, 10:51 32.56981° -117.16879° 30 min 0.01 0.00
151°
May 17, 10:21 32.56983° -117.16880° 30 min 0.01 0.00
May 17, 09:51 32.56981° -117.16880° 30 min 0.01 0.01
101°
May 17, 09:21 32.56982° -117.16887° 30 min 0.01 0.00
121°
May 17, 08:51 32.56983° -117.16889° 30 min 0.01 0.00
23°
May 17, 08:21 32.56980° -117.16891° 30 min 0.01 0.01
116°
May 17, 07:51 32.56982° -117.16895° 30 min 0.01 0.02
31°
May 17, 07:21 32.56970° -117.16904° 30 min 0.00 0.01
336°
May 17, 06:51 32.56963° -117.16900° 30 min 0.00 0.00
May 17, 06:21 32.56961° -117.16900° 30 min 0.00 0.01
May 17, 05:51 32.56955° -117.16900° 30 min 0.01 0.01
312°
May 17, 05:21 32.56952° -117.16895° 30 min 0.01 0.01
278°
May 17, 04:51 32.56951° -117.16889° 30 min 0.01 0.02
257°
May 17, 04:21 32.56954° -117.16874° 30 min 0.01 0.01
25°
May 17, 03:51 32.56950° -117.16876° 30 min 0.01 0.01
234°
May 17, 03:21 32.56954° -117.16869° 30 min 0.02 0.00
180°
May 17, 02:51 32.56956° -117.16869° 30 min 0.01 0.01
200°
May 17, 02:21 32.56961° -117.16867° 30 min 0.01 0.00
270°
May 17, 01:51 32.56961° -117.16866° 30 min 0.02 0.00
225°
May 17, 01:21 32.56963° -117.16863° 30 min 0.02 0.00
68°
May 17, 00:51 32.56963° -117.16866° 30 min 0.02 0.01
180°
May 17, 00:21 32.56970° -117.16866° 30 min 0.02 0.01
180°
May 16, 23:51 32.56976° -117.16866° 30 min 0.02 0.01
141°
May 16, 23:21 32.56985° -117.16874° 30 min 0.01 0.00
May 16, 22:51 32.56983° -117.16874° 30 min 0.01 0.01
127°
May 16, 22:21 32.56988° -117.16882° 30 min 0.01 0.00
90°